createdAt,value
2023-05-13T00:01:04.124Z,17.12
2023-05-13T00:03:32.451Z,17.06
2023-05-13T00:05:37.376Z,17.00
2023-05-13T00:07:39.093Z,17.06
2023-05-13T00:09:55.711Z,17.11
2023-05-13T00:12:29.279Z,16.99
2023-05-13T00:14:40.020Z,16.91
2023-05-13T00:19:25.375Z,17.11
2023-05-13T00:23:48.222Z,17.19
2023-05-13T00:28:58.459Z,17.05
2023-05-13T00:31:15.140Z,16.96
2023-05-13T00:33:37.336Z,16.95
2023-05-13T00:35:56.855Z,16.97
2023-05-13T00:38:01.634Z,16.87
2023-05-13T00:40:05.936Z,16.84
2023-05-13T00:42:07.667Z,16.81
2023-05-13T00:46:37.934Z,16.85
2023-05-13T00:49:18.250Z,16.77
2023-05-13T00:51:19.921Z,16.68
2023-05-13T00:53:30.942Z,16.57
2023-05-13T00:55:32.666Z,16.47
2023-05-13T00:57:34.937Z,16.39
2023-05-13T00:59:40.762Z,16.38
2023-05-13T01:01:51.909Z,16.40
2023-05-13T01:04:23.452Z,16.26
2023-05-13T01:10:09.647Z,16.03
2023-05-13T01:12:58.716Z,16.02
2023-05-13T01:15:44.485Z,15.93
2023-05-13T01:18:16.369Z,16.04
2023-05-13T01:21:08.729Z,16.05
2023-05-13T01:23:15.837Z,15.97
2023-05-13T01:25:24.291Z,15.91
2023-05-13T01:27:38.350Z,15.90
2023-05-13T01:32:40.295Z,15.64
2023-05-13T01:34:46.572Z,15.64
2023-05-13T01:37:19.667Z,15.62
2023-05-13T01:39:51.754Z,15.64
2023-05-13T01:41:54.054Z,15.63
2023-05-13T01:44:04.675Z,15.67
2023-05-13T01:46:20.742Z,15.71
2023-05-13T01:48:22.435Z,15.72
2023-05-13T01:50:28.026Z,15.73
2023-05-13T01:52:31.042Z,15.77
2023-05-13T01:54:56.808Z,15.69
2023-05-13T01:56:58.607Z,15.67
2023-05-13T02:02:07.618Z,15.73
2023-05-13T02:04:09.645Z,15.67
2023-05-13T02:06:11.414Z,15.71
2023-05-13T02:08:13.243Z,15.79
2023-05-13T02:10:39.851Z,15.74
2023-05-13T02:12:44.475Z,15.78
2023-05-13T02:14:48.751Z,15.72
2023-05-13T02:16:59.088Z,15.75
2023-05-13T02:19:00.814Z,15.81
2023-05-13T02:21:11.408Z,15.82
2023-05-13T02:23:34.380Z,15.60
2023-05-13T02:27:53.052Z,15.52
2023-05-13T02:32:26.897Z,15.46
2023-05-13T02:34:31.118Z,15.54
2023-05-13T02:36:41.722Z,15.42
2023-05-13T02:44:23.911Z,15.73
2023-05-13T02:46:34.660Z,15.80
2023-05-13T02:48:51.462Z,15.78
2023-05-13T02:50:54.518Z,15.81
2023-05-13T02:53:32.075Z,15.99
2023-05-13T02:55:33.731Z,15.82
2023-05-13T02:58:00.302Z,15.69
2023-05-13T03:00:15.441Z,15.63
2023-05-13T03:02:34.633Z,15.53
2023-05-13T03:06:51.905Z,15.50
2023-05-13T03:09:08.983Z,15.55
2023-05-13T03:11:28.413Z,15.45
2023-05-13T03:13:46.379Z,15.37
2023-05-13T03:16:08.439Z,15.32
2023-05-13T03:18:16.789Z,15.37
2023-05-13T03:20:28.193Z,15.41
2023-05-13T03:22:29.987Z,15.45
2023-05-13T03:27:09.419Z,15.53
2023-05-13T03:29:12.660Z,15.53
2023-05-13T03:31:45.754Z,15.46
2023-05-13T03:33:56.377Z,15.41
2023-05-13T03:35:58.554Z,15.46
2023-05-13T03:38:27.950Z,15.55
2023-05-13T03:40:45.554Z,15.64
2023-05-13T03:42:53.012Z,15.68
2023-05-13T03:45:17.863Z,15.76
2023-05-13T03:47:19.594Z,15.59
2023-05-13T03:49:27.097Z,15.46
2023-05-13T03:51:47.101Z,15.36
2023-05-13T03:53:57.958Z,15.21
2023-05-13T03:56:27.793Z,15.15
2023-05-13T03:58:38.713Z,15.10
2023-05-13T04:00:47.763Z,15.13
2023-05-13T04:02:52.349Z,14.99
2023-05-13T04:04:57.138Z,14.97
2023-05-13T04:06:58.971Z,14.85
2023-05-13T04:09:06.413Z,14.81
2023-05-13T04:11:17.148Z,14.94
2023-05-13T04:13:21.727Z,14.99
2023-05-13T04:15:25.832Z,14.91
2023-05-13T04:17:45.630Z,14.92
2023-05-13T04:20:37.908Z,15.01
2023-05-13T04:22:55.181Z,14.85
2023-05-13T04:25:09.865Z,14.86
2023-05-13T04:27:24.774Z,14.88
2023-05-13T04:29:32.227Z,14.94
2023-05-13T04:31:40.549Z,14.89
2023-05-13T04:34:24.772Z,14.91
2023-05-13T04:36:54.940Z,14.89
2023-05-13T04:39:18.131Z,14.89
2023-05-13T04:41:26.214Z,14.84
2023-05-13T04:43:39.741Z,14.85
2023-05-13T04:45:53.678Z,14.92
2023-05-13T04:48:13.799Z,14.89
2023-05-13T04:50:31.934Z,14.96
2023-05-13T04:52:43.230Z,15.00
2023-05-13T04:54:52.521Z,14.94
2023-05-13T04:57:00.139Z,14.98
2023-05-13T04:59:08.840Z,14.95
2023-05-13T05:01:29.796Z,14.95
2023-05-13T05:04:08.161Z,15.00
2023-05-13T05:06:34.714Z,14.96
2023-05-13T05:10:51.761Z,14.97
2023-05-13T05:12:53.647Z,15.06
2023-05-13T05:14:55.381Z,15.12
2023-05-13T05:17:00.241Z,15.19
2023-05-13T05:19:11.177Z,15.20
2023-05-13T05:21:20.890Z,15.30
2023-05-13T05:26:20.694Z,15.35
2023-05-13T05:28:28.407Z,15.41
2023-05-13T05:30:30.120Z,15.46
2023-05-13T05:33:01.183Z,15.54
2023-05-13T05:35:29.276Z,15.55
2023-05-13T05:37:40.511Z,15.51
2023-05-13T05:39:52.454Z,15.56
2023-05-13T05:42:13.740Z,15.61
2023-05-13T05:44:48.599Z,15.66
2023-05-13T05:46:57.860Z,15.69
2023-05-13T05:49:15.482Z,15.76
2023-05-13T05:51:29.179Z,15.79
2023-05-13T05:53:57.172Z,15.84
2023-05-13T05:56:26.727Z,15.94
2023-05-13T06:00:53.563Z,16.06
2023-05-13T06:02:55.255Z,16.12
2023-05-13T06:04:57.097Z,16.22
2023-05-13T06:07:03.030Z,16.27
2023-05-13T06:09:32.672Z,16.37
2023-05-13T06:11:48.334Z,16.34
2023-05-13T06:14:00.054Z,16.37
2023-05-13T06:16:14.169Z,16.37
2023-05-13T06:18:28.318Z,16.43
2023-05-13T06:20:41.017Z,16.53
2023-05-13T06:22:45.751Z,16.55
2023-05-13T06:25:00.987Z,16.55
2023-05-13T06:27:40.873Z,16.64
2023-05-13T06:29:42.441Z,16.72
2023-05-13T06:31:52.435Z,16.90
2023-05-13T06:34:25.413Z,16.99
2023-05-13T06:36:37.666Z,17.13
2023-05-13T06:39:06.345Z,17.33
2023-05-13T06:41:08.913Z,17.43
2023-05-13T06:43:14.974Z,17.51
2023-05-13T06:45:16.726Z,17.63
2023-05-13T06:47:18.690Z,17.76
2023-05-13T06:49:51.281Z,17.91
2023-05-13T06:52:29.221Z,18.09
2023-05-13T06:54:30.765Z,18.26
2023-05-13T06:56:38.167Z,18.41
2023-05-13T06:58:41.112Z,18.57
2023-05-13T07:01:04.490Z,18.59
2023-05-13T07:03:21.081Z,18.63
2023-05-13T07:05:29.990Z,18.76
2023-05-13T07:07:31.624Z,18.92
2023-05-13T07:09:33.233Z,19.05
2023-05-13T07:11:34.919Z,19.18
2023-05-13T07:15:53.349Z,19.44
2023-05-13T07:17:58.868Z,19.48
2023-05-13T07:20:21.936Z,19.48
2023-05-13T07:22:28.388Z,19.72
2023-05-13T07:24:30.046Z,19.69
2023-05-13T07:26:34.642Z,19.73
2023-05-13T07:29:05.770Z,19.91
2023-05-13T07:31:09.157Z,19.97
2023-05-13T07:33:14.592Z,19.97
2023-05-13T07:35:19.310Z,20.02
2023-05-13T07:37:21.238Z,20.12
2023-05-13T07:39:26.147Z,20.11
2023-05-13T07:41:30.927Z,20.16
2023-05-13T07:43:36.378Z,19.81
2023-05-13T07:45:42.786Z,19.72
2023-05-13T07:47:52.020Z,19.58
2023-05-13T07:49:55.941Z,19.53
2023-05-13T07:52:00.337Z,19.58
2023-05-13T07:54:09.055Z,19.63
2023-05-13T07:56:10.765Z,19.64
2023-05-13T07:58:30.685Z,19.68
2023-05-13T08:00:46.041Z,19.71
2023-05-13T08:02:52.195Z,20.05
2023-05-13T08:05:19.264Z,20.44
2023-05-13T08:07:23.804Z,20.53
2023-05-13T08:09:34.284Z,20.75
2023-05-13T08:11:37.158Z,20.80
2023-05-13T08:13:44.854Z,20.90
2023-05-13T08:15:55.464Z,21.07
2023-05-13T08:17:58.483Z,21.14
2023-05-13T08:20:03.965Z,21.43
2023-05-13T08:22:06.684Z,21.50
2023-05-13T08:24:11.519Z,21.65
2023-05-13T08:26:13.522Z,21.59
2023-05-13T08:28:25.691Z,21.55
2023-05-13T08:30:27.899Z,21.56
2023-05-13T08:32:44.501Z,21.35
2023-05-13T08:34:50.900Z,21.15
2023-05-13T08:36:52.438Z,20.90
2023-05-13T08:38:54.021Z,20.92
2023-05-13T08:40:56.612Z,20.78
2023-05-13T08:43:00.729Z,20.64
2023-05-13T08:45:05.194Z,20.57
2023-05-13T08:47:16.213Z,20.63
2023-05-13T08:49:18.273Z,20.56
2023-05-13T08:51:22.659Z,20.54
2023-05-13T08:53:26.077Z,20.56
2023-05-13T08:55:41.798Z,20.57
2023-05-13T08:57:49.631Z,20.53
2023-05-13T08:59:57.488Z,20.54
2023-05-13T09:04:18.888Z,20.34
2023-05-13T09:06:27.806Z,20.41
2023-05-13T09:08:29.846Z,20.40
2023-05-13T09:10:31.526Z,20.42
2023-05-13T09:12:58.523Z,20.50
2023-05-13T09:15:09.293Z,20.37
2023-05-13T09:17:11.113Z,20.54
2023-05-13T09:19:18.431Z,20.69
2023-05-13T09:21:30.090Z,20.74
2023-05-13T09:23:34.786Z,20.82
2023-05-13T09:25:38.434Z,20.94
2023-05-13T09:27:52.153Z,21.04
2023-05-13T09:29:59.216Z,21.06
2023-05-13T09:37:18.018Z,21.08
2023-05-13T09:39:19.825Z,21.12
2023-05-13T09:41:21.488Z,21.10
2023-05-13T09:43:24.427Z,21.18
2023-05-13T09:45:26.357Z,21.21
2023-05-13T09:47:27.983Z,21.07
2023-05-13T09:49:32.064Z,21.10
2023-05-13T09:51:34.680Z,21.18
2023-05-13T09:53:37.660Z,21.26
2023-05-13T09:55:44.847Z,21.30
2023-05-13T09:57:46.432Z,21.29
2023-05-13T09:59:48.011Z,21.30
2023-05-13T10:01:49.978Z,21.34
2023-05-13T10:03:51.710Z,21.32
2023-05-13T10:05:53.352Z,21.35
2023-05-13T10:07:55.849Z,21.35
2023-05-13T10:10:01.642Z,21.42
2023-05-13T10:12:06.706Z,21.44
2023-05-13T10:14:09.105Z,21.57
2023-05-13T10:16:11.697Z,21.83
2023-05-13T10:18:15.032Z,22.08
2023-05-13T10:20:16.942Z,22.22
2023-05-13T10:22:26.814Z,22.37
2023-05-13T10:24:29.171Z,22.35
2023-05-13T10:26:32.443Z,22.36
2023-05-13T10:28:34.342Z,22.39
2023-05-13T10:30:36.779Z,22.44
2023-05-13T10:32:39.560Z,22.68
2023-05-13T10:34:43.837Z,22.63
2023-05-13T10:37:13.309Z,22.50
2023-05-13T10:39:33.556Z,22.47
2023-05-13T10:42:11.532Z,22.50
2023-05-13T10:44:13.310Z,22.47
2023-05-13T10:46:14.982Z,22.62
2023-05-13T10:48:18.310Z,22.72
2023-05-13T10:50:24.013Z,22.68
2023-05-13T10:52:41.529Z,22.75
2023-05-13T10:54:43.119Z,22.87
2023-05-13T10:56:56.346Z,22.89
2023-05-13T10:58:59.595Z,22.94
2023-05-13T11:01:17.057Z,22.91
2023-05-13T11:03:29.681Z,23.10
2023-05-13T11:05:31.320Z,23.14
2023-05-13T11:07:38.044Z,23.16
2023-05-13T11:09:39.670Z,23.26
2023-05-13T11:11:41.560Z,23.08
2023-05-13T11:13:45.024Z,23.16
2023-05-13T11:15:50.729Z,23.18
2023-05-13T11:17:53.599Z,23.20
2023-05-13T11:19:56.503Z,23.23
2023-05-13T11:22:04.910Z,23.31
2023-05-13T11:24:07.515Z,23.31
2023-05-13T11:26:12.146Z,23.09
2023-05-13T11:28:17.699Z,23.16
2023-05-13T11:30:26.146Z,23.22
2023-05-13T11:32:53.302Z,23.06
2023-05-13T11:34:55.147Z,23.01
2023-05-13T11:37:05.954Z,22.88
2023-05-13T11:39:09.651Z,22.80
2023-05-13T11:41:12.118Z,22.77
2023-05-13T11:43:19.976Z,22.69
2023-05-13T11:45:24.502Z,22.65
2023-05-13T11:47:26.427Z,22.55
2023-05-13T11:49:36.096Z,22.52
2023-05-13T11:51:37.737Z,22.44
2023-05-13T11:53:39.278Z,22.39
2023-05-13T11:55:40.970Z,22.39
2023-05-13T11:57:42.523Z,22.39
2023-05-13T11:59:56.185Z,22.56
2023-05-13T12:02:02.751Z,22.60
2023-05-13T12:04:04.642Z,22.48
2023-05-13T12:06:06.281Z,22.71
2023-05-13T12:08:09.138Z,22.91
2023-05-13T12:10:11.313Z,23.06
2023-05-13T12:12:12.996Z,23.05
2023-05-13T12:14:14.810Z,23.14
2023-05-13T12:16:16.549Z,23.23
2023-05-13T12:18:19.499Z,23.35
2023-05-13T12:20:22.532Z,23.28
2023-05-13T12:22:24.124Z,23.30
2023-05-13T12:24:25.732Z,23.16
2023-05-13T12:26:27.429Z,23.15
2023-05-13T12:28:29.027Z,23.04
2023-05-13T12:30:33.725Z,22.98
2023-05-13T12:32:45.759Z,22.86
2023-05-13T12:34:50.991Z,22.77
2023-05-13T12:36:52.744Z,22.57
2023-05-13T12:39:00.713Z,22.54
2023-05-13T12:41:12.163Z,22.45
2023-05-13T12:43:15.533Z,22.38
2023-05-13T12:45:17.263Z,22.31
2023-05-13T12:47:18.896Z,22.44
2023-05-13T12:49:20.749Z,22.55
2023-05-13T12:51:23.793Z,22.47
2023-05-13T12:53:25.499Z,22.56
2023-05-13T12:55:27.346Z,22.44
2023-05-13T12:57:31.569Z,22.49
2023-05-13T12:59:33.946Z,22.48
2023-05-13T13:01:35.822Z,22.47
2023-05-13T13:03:37.627Z,22.96
2023-05-13T13:05:39.419Z,23.66
2023-05-13T13:07:42.458Z,23.57
2023-05-13T13:09:44.134Z,23.84
2023-05-13T13:11:47.003Z,23.99
2023-05-13T13:13:50.263Z,23.95
2023-05-13T13:15:51.826Z,24.62
2023-05-13T13:17:53.471Z,25.35
2023-05-13T13:19:55.071Z,25.25
2023-05-13T13:21:56.744Z,25.14
2023-05-13T13:23:59.672Z,24.82
2023-05-13T13:26:01.417Z,24.78
2023-05-13T13:28:03.155Z,25.45
2023-05-13T13:30:06.346Z,26.05
2023-05-13T13:32:08.357Z,26.35
2023-05-13T13:34:10.031Z,26.48
2023-05-13T13:36:11.666Z,27.03
2023-05-13T13:38:13.437Z,27.35
2023-05-13T13:40:16.423Z,27.36
2023-05-13T13:42:18.166Z,27.39
2023-05-13T13:44:19.772Z,27.10
2023-05-13T13:46:21.510Z,26.43
2023-05-13T13:48:23.211Z,26.03
2023-05-13T13:50:24.883Z,25.93
2023-05-13T13:52:26.469Z,26.22
2023-05-13T13:54:28.143Z,26.27
2023-05-13T13:56:31.210Z,26.32
2023-05-13T13:58:32.755Z,26.22
2023-05-13T14:00:34.642Z,26.36
2023-05-13T14:02:36.320Z,26.37
2023-05-13T14:04:38.125Z,26.01
2023-05-13T14:06:39.955Z,25.71
2023-05-13T14:08:41.534Z,25.48
2023-05-13T14:10:43.087Z,25.08
2023-05-13T14:12:46.058Z,24.88
2023-05-13T14:14:47.681Z,24.62
2023-05-13T14:16:49.281Z,24.61
2023-05-13T14:18:50.860Z,24.63
2023-05-13T14:20:52.522Z,24.53
2023-05-13T14:22:54.113Z,24.56
2023-05-13T14:24:55.801Z,24.52
2023-05-13T14:26:57.502Z,24.52
2023-05-13T14:29:00.489Z,24.37
2023-05-13T14:31:02.255Z,24.37
2023-05-13T14:33:04.167Z,24.39
2023-05-13T14:35:06.814Z,24.31
2023-05-13T14:37:08.816Z,24.19
2023-05-13T14:39:10.470Z,24.23
2023-05-13T14:41:12.858Z,24.15
2023-05-13T14:43:14.583Z,24.12
2023-05-13T14:45:18.749Z,24.05
2023-05-13T14:47:20.575Z,23.88
2023-05-13T14:49:22.148Z,23.58
2023-05-13T14:51:23.795Z,23.40
2023-05-13T14:53:25.367Z,23.19
2023-05-13T14:55:27.174Z,22.98
2023-05-13T14:57:28.737Z,22.88
2023-05-13T14:59:30.404Z,22.73
2023-05-13T15:01:34.585Z,22.80
2023-05-13T15:03:36.544Z,22.83
2023-05-13T15:05:38.331Z,22.83
2023-05-13T15:07:40.284Z,22.78
2023-05-13T15:09:41.851Z,22.74
2023-05-13T15:11:43.450Z,22.70
2023-05-13T15:13:45.155Z,22.68
2023-05-13T15:15:46.987Z,22.69
2023-05-13T15:17:50.064Z,22.70
2023-05-13T15:19:51.755Z,22.68
2023-05-13T15:21:53.377Z,22.70
2023-05-13T15:23:55.036Z,22.63
2023-05-13T15:25:56.641Z,22.67
2023-05-13T15:27:58.246Z,22.64
2023-05-13T15:29:59.934Z,22.64
2023-05-13T15:32:01.785Z,22.60
2023-05-13T15:34:04.726Z,22.62
2023-05-13T15:36:07.399Z,22.67
2023-05-13T15:38:09.273Z,22.69
2023-05-13T15:40:11.905Z,22.64
2023-05-13T15:42:13.657Z,22.65
2023-05-13T15:44:15.485Z,22.73
2023-05-13T15:46:17.160Z,22.78
2023-05-13T15:48:18.850Z,22.77
2023-05-13T15:50:22.302Z,22.65
2023-05-13T15:52:24.070Z,22.58
2023-05-13T15:54:25.705Z,22.56
2023-05-13T15:56:27.319Z,22.59
2023-05-13T15:58:28.920Z,22.57
2023-05-13T16:00:30.823Z,22.55
2023-05-13T16:02:32.596Z,22.44
2023-05-13T16:04:34.281Z,22.14
2023-05-13T16:06:37.274Z,22.12
2023-05-13T16:08:38.885Z,22.13
2023-05-13T16:10:40.443Z,22.19
2023-05-13T16:12:42.091Z,21.81
2023-05-13T16:14:43.644Z,21.58
2023-05-13T16:16:45.283Z,21.31
2023-05-13T16:18:47.071Z,21.04
2023-05-13T16:20:48.729Z,21.10
2023-05-13T16:22:51.669Z,21.04
2023-05-13T16:24:53.373Z,21.10
2023-05-13T16:26:54.998Z,20.97
2023-05-13T16:28:56.566Z,21.07
2023-05-13T16:30:58.770Z,21.21
2023-05-13T16:33:00.475Z,21.30
2023-05-13T16:35:02.534Z,21.19
2023-05-13T16:37:04.387Z,21.20
2023-05-13T16:39:07.384Z,21.24
2023-05-13T16:41:09.369Z,21.24
2023-05-13T16:43:10.959Z,21.27
2023-05-13T16:45:12.737Z,21.27
2023-05-13T16:47:14.343Z,21.35
2023-05-13T16:49:15.984Z,21.33
2023-05-13T16:51:17.750Z,21.44
2023-05-13T16:53:19.339Z,21.55
2023-05-13T16:55:22.580Z,21.56
2023-05-13T16:57:24.218Z,21.54
2023-05-13T16:59:27.144Z,21.67
2023-05-13T17:01:28.836Z,21.48
2023-05-13T17:03:30.636Z,21.35
2023-05-13T17:05:32.330Z,21.31
2023-05-13T17:07:33.958Z,21.21
2023-05-13T17:09:35.516Z,21.07
2023-05-13T17:11:39.108Z,21.02
2023-05-13T17:13:40.649Z,21.06
2023-05-13T17:15:42.277Z,20.91
2023-05-13T17:17:43.842Z,21.04
2023-05-13T17:19:45.517Z,20.96
2023-05-13T17:21:47.141Z,20.93
2023-05-13T17:23:49.050Z,20.77
2023-05-13T17:25:50.616Z,20.64
2023-05-13T17:27:53.651Z,20.70
2023-05-13T17:29:55.327Z,20.63
2023-05-13T17:31:56.983Z,20.62
2023-05-13T17:33:58.690Z,20.53
2023-05-13T17:36:00.425Z,20.52
2023-05-13T17:38:02.082Z,20.51
2023-05-13T17:40:04.199Z,20.57
2023-05-13T17:42:05.964Z,20.57
2023-05-13T17:44:09.008Z,20.59
2023-05-13T17:46:10.609Z,20.61
2023-05-13T17:48:12.359Z,20.50
2023-05-13T17:50:14.135Z,20.41
2023-05-13T17:52:16.290Z,20.32
2023-05-13T17:54:17.946Z,20.24
2023-05-13T17:56:19.599Z,20.27
2023-05-13T17:58:22.078Z,20.28
2023-05-13T18:00:25.987Z,20.14
2023-05-13T18:02:27.933Z,20.00
2023-05-13T18:04:29.608Z,19.95
2023-05-13T18:06:31.786Z,19.98
2023-05-13T18:08:33.435Z,19.98
2023-05-13T18:10:35.289Z,19.98
2023-05-13T18:12:36.934Z,19.99
2023-05-13T18:14:39.040Z,20.07
2023-05-13T18:16:42.084Z,20.07
2023-05-13T18:18:43.834Z,20.09
2023-05-13T18:20:45.449Z,20.15
2023-05-13T18:22:47.059Z,20.14
2023-05-13T18:24:49.928Z,20.07
2023-05-13T18:26:52.839Z,19.97
2023-05-13T18:28:54.835Z,19.97
2023-05-13T18:30:56.792Z,20.00
2023-05-13T18:32:59.818Z,19.95
2023-05-13T18:35:01.940Z,19.93
2023-05-13T18:37:03.620Z,19.91
2023-05-13T18:39:05.256Z,19.99
2023-05-13T18:41:07.419Z,19.94
2023-05-13T18:43:09.398Z,19.92
2023-05-13T18:45:11.766Z,19.94
2023-05-13T18:47:13.421Z,19.91
2023-05-13T18:49:17.187Z,19.85
2023-05-13T18:51:18.845Z,19.82
2023-05-13T18:53:20.946Z,19.81
2023-05-13T18:55:22.539Z,19.81
2023-05-13T18:57:24.642Z,19.84
2023-05-13T18:59:26.392Z,19.82
2023-05-13T19:01:28.344Z,19.74
2023-05-13T19:03:30.588Z,19.65
2023-05-13T19:05:33.662Z,19.69
2023-05-13T19:07:37.567Z,19.66
2023-05-13T19:09:39.711Z,19.56
2023-05-13T19:11:41.565Z,19.59
2023-05-13T19:13:47.215Z,19.65
2023-05-13T19:15:49.555Z,19.62
2023-05-13T19:17:53.099Z,19.59
2023-05-13T19:19:54.803Z,19.64
2023-05-13T19:21:58.195Z,19.67
2023-05-13T19:24:00.159Z,19.60
2023-05-13T19:26:01.843Z,19.63
2023-05-13T19:28:04.290Z,19.64
2023-05-13T19:30:07.196Z,19.65
2023-05-13T19:32:08.943Z,19.68
2023-05-13T19:34:10.563Z,19.78
2023-05-13T19:36:12.772Z,19.73
2023-05-13T19:38:16.665Z,19.67
2023-05-13T19:40:18.623Z,19.66
2023-05-13T19:42:20.320Z,19.74
2023-05-13T19:44:21.965Z,19.71
2023-05-13T19:46:23.746Z,19.73
2023-05-13T19:48:27.271Z,19.79
2023-05-13T19:50:29.923Z,19.87
2023-05-13T19:52:31.604Z,19.92
2023-05-13T19:54:34.971Z,19.85
2023-05-13T19:56:39.033Z,19.80
2023-05-13T19:58:41.971Z,19.81
2023-05-13T20:00:44.263Z,19.88
2023-05-13T20:02:46.059Z,19.88
2023-05-13T20:04:48.052Z,19.91
2023-05-13T20:06:49.753Z,19.95
2023-05-13T20:08:51.543Z,19.97
2023-05-13T20:10:54.902Z,19.96
2023-05-13T20:12:56.706Z,19.95
2023-05-13T20:14:58.390Z,19.94
2023-05-13T20:17:00.073Z,19.92
2023-05-13T20:19:01.871Z,19.88
2023-05-13T20:21:03.922Z,19.83
2023-05-13T20:23:05.624Z,19.79
2023-05-13T20:25:07.798Z,19.76
2023-05-13T20:27:11.043Z,19.74
2023-05-13T20:29:12.756Z,19.74
2023-05-13T20:31:14.588Z,19.69
2023-05-13T20:33:16.518Z,19.66
2023-05-13T20:35:18.254Z,19.62
2023-05-13T20:37:22.633Z,19.58
2023-05-13T20:39:25.674Z,19.49
2023-05-13T20:41:27.682Z,19.45
2023-05-13T20:43:31.652Z,19.48
2023-05-13T20:45:33.617Z,19.38
2023-05-13T20:47:35.227Z,19.39
2023-05-13T20:49:36.847Z,19.41
2023-05-13T20:51:38.844Z,19.40
2023-05-13T20:53:40.572Z,19.31
2023-05-13T20:55:45.410Z,19.25
2023-05-13T20:57:47.732Z,19.13
2023-05-13T20:59:51.013Z,19.17
2023-05-13T21:01:52.708Z,19.21
2023-05-13T21:03:54.544Z,19.26
2023-05-13T21:05:56.291Z,19.31
2023-05-13T21:08:00.250Z,19.36
2023-05-13T21:10:02.553Z,19.41
2023-05-13T21:12:05.358Z,19.43
2023-05-13T21:14:07.010Z,19.46
2023-05-13T21:16:10.374Z,19.41
2023-05-13T21:18:12.056Z,19.37
2023-05-13T21:20:13.909Z,19.41
2023-05-13T21:22:16.158Z,19.38
2023-05-13T21:24:19.726Z,19.32
2023-05-13T21:26:21.467Z,19.41
2023-05-13T21:28:23.154Z,19.40
2023-05-13T21:30:25.005Z,19.38
2023-05-13T21:32:28.306Z,19.42
2023-05-13T21:34:29.987Z,19.42
2023-05-13T21:36:31.661Z,19.37
2023-05-13T21:38:35.949Z,19.36
2023-05-13T21:40:37.821Z,19.38
2023-05-13T21:42:39.444Z,19.35
2023-05-13T21:44:41.105Z,19.37
2023-05-13T21:46:42.826Z,19.20
2023-05-13T21:48:46.370Z,19.20
2023-05-13T21:50:48.054Z,19.09
2023-05-13T21:52:49.712Z,19.03
2023-05-13T21:54:51.480Z,18.96
2023-05-13T21:56:53.148Z,18.81
2023-05-13T21:58:54.737Z,18.75
2023-05-13T22:00:56.321Z,18.71
2023-05-13T22:02:59.798Z,18.71
2023-05-13T22:05:03.240Z,18.68
2023-05-13T22:07:05.128Z,18.64
2023-05-13T22:09:06.861Z,18.56
2023-05-13T22:11:10.392Z,18.63
2023-05-13T22:13:12.056Z,18.57
2023-05-13T22:15:13.949Z,18.54
2023-05-13T22:17:15.702Z,18.50
2023-05-13T22:19:17.555Z,18.41
2023-05-13T22:21:20.536Z,18.36
2023-05-13T22:23:22.261Z,18.41
2023-05-13T22:25:23.907Z,18.44
2023-05-13T22:27:25.617Z,18.47
2023-05-13T22:29:27.248Z,18.47
2023-05-13T22:31:29.042Z,18.44
2023-05-13T22:33:30.698Z,18.44
2023-05-13T22:35:32.372Z,18.38
2023-05-13T22:37:35.268Z,18.41
2023-05-13T22:39:37.088Z,18.40
2023-05-13T22:41:38.982Z,18.43
2023-05-13T22:43:40.589Z,18.39
2023-05-13T22:45:42.502Z,18.36
2023-05-13T22:47:44.329Z,18.33
2023-05-13T22:49:46.265Z,18.37
2023-05-13T22:51:48.073Z,18.38
2023-05-13T22:53:52.512Z,18.31
2023-05-13T22:55:54.118Z,18.29
2023-05-13T22:57:55.802Z,18.30
2023-05-13T22:59:57.482Z,18.25
2023-05-13T23:01:59.253Z,18.18
2023-05-13T23:04:02.613Z,18.13
2023-05-13T23:06:04.437Z,18.09
2023-05-13T23:08:06.085Z,18.12
2023-05-13T23:10:10.276Z,18.12
2023-05-13T23:12:12.081Z,18.13
2023-05-13T23:14:13.662Z,18.07
2023-05-13T23:16:16.787Z,18.04
2023-05-13T23:18:18.550Z,18.10
2023-05-13T23:20:20.499Z,18.06
2023-05-13T23:22:22.582Z,18.08
2023-05-13T23:24:24.214Z,18.04
2023-05-13T23:26:27.184Z,17.98
2023-05-13T23:28:28.796Z,17.95
2023-05-13T23:30:30.408Z,17.98
2023-05-13T23:32:32.031Z,17.97
2023-05-13T23:34:38.542Z,17.94
2023-05-13T23:36:40.382Z,17.92
2023-05-13T23:38:42.026Z,17.93
2023-05-13T23:40:44.173Z,17.91
2023-05-13T23:42:47.091Z,17.78
2023-05-13T23:44:49.062Z,17.74
2023-05-13T23:46:52.076Z,17.77
2023-05-13T23:48:53.937Z,17.80
2023-05-13T23:50:55.751Z,17.85
2023-05-13T23:52:57.686Z,17.79
2023-05-13T23:55:00.186Z,17.76
2023-05-13T23:57:02.227Z,17.83
2023-05-13T23:59:05.400Z,17.76
